Airfield :
LOGIN :

Register | Disclaimer

   EN    FR    IT 

 










Legend :    VFR   Marginal VFR   IFR   Intensive IFR   Very Intensive IFR
Visi :
Ceiling :
>= 8 km
>= 3000ft
5 to 8 km
1000 to 3000 ft
1500m to 5 km
500 to 1000 ft
800 to 1500m
200 to 500 ft
< 800m
< 200 ft
Symbols :   Thunderstorms  Fog  Heavy snow  Heavy precipitations  Wind > 20 kt
SIGMETs :     Misc.  Thunderstorms  Icing  Turbulence  Mountain Waves  Volcanic Ashes






- Airport Elevation : 1106 ft


LFSO - Nancy / Ochey

CURRENT METAR :
  • 180430Z AUTO 03004KT 2000 BR OVC003 03/03 Q1036 BECMG 1000 BCFG

EXPIRED METARs :
  • 180400Z AUTO 01003KT 340V040 1300 1100 R20/1800D BR OVC003 03/03 Q1036
  • 180330Z AUTO 35003KT 2200 1300 R20/P2000 BR OVC003 03/03 Q1036
  • 180300Z AUTO 01003KT 2900 BR OVC003 03/03 Q1036
  • 180230Z AUTO 02004KT 3400 BR OVC003 03/03 Q1036
  • 180200Z AUTO 03004KT 360V070 3200 BR OVC003 03/03 Q1036

TAF TAF LFSO
Valid from the 18 at 03:00 until the 19 at 03:00 UTC


180417Z 1803/1903 02005KT 1000 BCFG OVC002
BECMG 1808/1812 OVC005
BECMG 1812/1813 06010KT BKN008
TEMPO 1814/1816 SCT010
BECMG 1819/1821 NSC
BECMG 1823/1901 3000 BR
TEMPO 1901/1903 0500 FZFG VV///



MET'MAP, your aeronautical weather chart ! - Copyright ORBIFLY December 2007 - Disclaimer

ORBIFLY MET'MAP TEAM :

Programming & Development : Alexandra Zaïnal
Concept & original design : Baudouin d'Aumeries
Assistance for programming : Marc-Olivier Méhu
Technical & hardware support : Manuel Goepfert

Contact : metmap@orbifly.com




SOURCES & CREDITS :

   NOAA